Time;durP1;ratioP1;P1;durP2;ratioP2;P2;SDS_P1;SDS_P2;PMS_P1;PMS_P2;Temp;Humidity;BMP_temperature;BMP_pressure;BME280_temperature;BME280_humidity;BME280_pressure;Samples;Min_cycle;Max_cycle;Signal;HPM_P1;HPM_P2
2021/07/15 00:00:38;;;;;;;;;;;;;;;23.84;73.66;100095.80;1758762;81;20136;-65
2021/07/15 00:03:07;;;;;;;;;;;;;;;23.83;73.85;100097.29;1757963;81;20149;-65
2021/07/15 00:05:34;;;;;;;;;;;;;;;23.81;74.03;100091.31;1757992;81;21153;-65
2021/07/15 00:08:01;;;;;;;;;;;;;;;23.80;74.10;100094.47;1757872;81;20137;-65
2021/07/15 00:10:37;;;;;;;;;;;;;;;23.78;74.15;100095.14;1757925;81;20172;-65
2021/07/15 00:13:06;;;;;;;;;;;;;;;23.77;74.27;100096.64;1758078;81;20117;-66
2021/07/15 00:15:35;;;;;;;;;;;;;;;23.76;74.33;100098.46;1760263;80;20149;-66
2021/07/15 00:18:05;;;;;;;;;;;;;;;23.74;74.36;100095.14;1760258;81;21187;-66
2021/07/15 00:20:37;;;;;;;;;;;;;;;23.72;74.45;100096.31;1760151;81;20125;-66
2021/07/15 00:23:05;;;;;;;;;;;;;;;23.70;74.50;100088.50;1758071;81;20145;-66
2021/07/15 00:25:34;;;;;;;;;;;;;;;23.71;74.42;100099.97;1757917;81;20121;-66
2021/07/15 00:28:00;;;;;;;;;;;;;;;23.69;74.47;100095.31;1757966;81;20117;-65
2021/07/15 00:30:27;;;;;;;;;;;;;;;23.67;74.48;100093.32;1758082;81;21956;-66
2021/07/15 00:32:54;;;;;;;;;;;;;;;23.66;74.54;100092.99;1757870;81;20455;-64
2021/07/15 00:35:23;;;;;;;;;;;;;;;23.66;74.52;100096.98;1757949;81;20126;-66
2021/07/15 00:37:49;;;;;;;;;;;;;;;23.65;74.52;100095.32;1757875;81;20129;-66
2021/07/15 00:40:17;;;;;;;;;;;;;;;23.63;74.59;100100.80;1758213;81;20157;-66
2021/07/15 00:42:46;;;;;;;;;;;;;;;23.61;74.65;100104.13;1757810;81;20109;-65
2021/07/15 00:45:13;;;;;;;;;;;;;;;23.60;74.65;100099.81;1757938;81;20479;-66
2021/07/15 00:47:41;;;;;;;;;;;;;;;23.59;74.61;100098.98;1757815;81;20482;-65
2021/07/15 00:50:10;;;;;;;;;;;;;;;23.57;74.63;100095.69;1757873;81;20180;-66
2021/07/15 00:52:37;;;;;;;;;;;;;;;23.57;74.61;100102.34;1757951;81;20125;-66
2021/07/15 00:55:08;;;;;;;;;;;;;;;23.54;74.61;100092.03;1758137;81;20133;-64
2021/07/15 00:57:35;;;;;;;;;;;;;;;23.52;74.63;100094.50;1757634;81;20172;-65
2021/07/15 01:00:01;;;;;;;;;;;;;;;23.47;74.75;100093.67;1758384;81;20133;-65
2021/07/15 01:02:30;;;;;;;;;;;;;;;23.46;74.80;100093.83;1760337;81;20149;-65
2021/07/15 01:04:57;;;;;;;;;;;;;;;23.43;74.96;100096.33;1760068;81;20153;-62
2021/07/15 01:07:24;;;;;;;;;;;;;;;23.42;74.97;100097.32;1760156;80;21853;-62
2021/07/15 01:09:52;;;;;;;;;;;;;;;23.39;74.95;100102.97;1760101;81;20439;-63
2021/07/15 01:12:38;;;;;;;;;;;;;;;23.35;75.10;100096.33;1760081;81;20137;-62
2021/07/15 01:15:17;;;;;;;;;;;;;;;23.31;75.23;100101.63;1760145;81;20133;-63
2021/07/15 01:17:55;;;;;;;;;;;;;;;23.29;75.34;100107.12;1760079;81;20133;-63
2021/07/15 01:20:38;;;;;;;;;;;;;;;23.26;75.40;100098.15;1760218;81;21122;-63
2021/07/15 01:23:32;;;;;;;;;;;;;;;23.24;75.49;100101.47;1759840;81;20133;-63
2021/07/15 01:26:03;;;;;;;;;;;;;;;23.23;75.63;100101.63;1758635;81;20482;-63
2021/07/15 01:28:54;;;;;;;;;;;;;;;23.23;75.67;100108.27;1760001;81;20125;-65
2021/07/15 01:31:23;;;;;;;;;;;;;;;23.21;75.66;100108.94;1760120;81;20137;-63
2021/07/15 01:33:50;;;;;;;;;;;;;;;23.19;75.60;100104.31;1760233;81;21893;-63
2021/07/15 01:36:22;;;;;;;;;;;;;;;23.18;75.61;100101.33;1760256;81;20268;-63
2021/07/15 01:38:55;;;;;;;;;;;;;;;23.18;75.61;100106.64;1760028;80;20173;-63
2021/07/15 01:41:28;;;;;;;;;;;;;;;23.17;75.61;100106.30;1730803;81;20136;-62
2021/07/15 01:44:04;;;;;;;;;;;;;;;23.15;75.53;100108.30;1760155;81;20495;-62
2021/07/15 01:46:31;;;;;;;;;;;;;;;23.12;75.55;100105.97;1759579;81;21144;-62
2021/07/15 01:48:58;;;;;;;;;;;;;;;23.08;75.69;100104.13;1760110;81;20165;-62
2021/07/15 01:51:24;;;;;;;;;;;;;;;23.05;75.72;100105.79;1760469;81;20156;-62
2021/07/15 01:53:52;;;;;;;;;;;;;;;23.03;75.78;100096.32;1727695;82;20098;-62
2021/07/15 01:56:19;;;;;;;;;;;;;;;23.02;75.87;100102.13;1758487;81;20144;-64
2021/07/15 01:58:46;;;;;;;;;;;;;;;23.00;75.87;100101.47;1760191;81;21133;-63
2021/07/15 02:01:13;;;;;;;;;;;;;;;22.98;75.89;100101.30;1762299;81;20145;-62
2021/07/15 02:03:42;;;;;;;;;;;;;;;22.97;75.96;100101.80;1763933;81;20196;-62
2021/07/15 02:06:09;;;;;;;;;;;;;;;22.97;75.93;100093.82;1764170;81;20481;-62
2021/07/15 02:08:36;;;;;;;;;;;;;;;22.97;76.00;100099.14;1764136;81;20446;-62
2021/07/15 02:11:04;;;;;;;;;;;;;;;22.97;76.05;100096.97;1763942;81;20116;-62
2021/07/15 02:13:33;;;;;;;;;;;;;;;22.99;76.10;100110.42;1763799;81;20116;-63
2021/07/15 02:16:03;;;;;;;;;;;;;;;23.02;75.90;100112.75;1763901;81;20145;-63
2021/07/15 02:18:31;;;;;;;;;;;;;;;23.04;75.69;100106.78;1763776;81;20156;-64
2021/07/15 02:20:58;;;;;;;;;;;;;;;23.06;75.50;100107.45;1763993;81;20116;-64
2021/07/15 02:23:27;;;;;;;;;;;;;;;23.09;75.29;100104.97;1763795;81;20133;-63
2021/07/15 02:25:55;;;;;;;;;;;;;;;23.10;75.26;100109.28;1763816;81;20133;-62
2021/07/15 02:28:22;;;;;;;;;;;;;;;23.11;75.12;100111.77;1763948;81;20115;-63
2021/07/15 02:30:51;;;;;;;;;;;;;;;23.12;75.05;100110.78;1763865;81;20140;-63
2021/07/15 02:33:18;;;;;;;;;;;;;;;23.16;74.91;100112.61;1763981;81;20105;-63
2021/07/15 02:35:49;;;;;;;;;;;;;;;23.20;74.74;100108.10;1763927;81;21133;-63
2021/07/15 02:38:17;;;;;;;;;;;;;;;23.25;74.51;100107.11;1764092;81;20436;-63
2021/07/15 02:40:44;;;;;;;;;;;;;;;23.32;74.29;100114.42;1763822;81;20125;-62
2021/07/15 02:43:11;;;;;;;;;;;;;;;23.39;74.06;100114.92;1763871;81;20161;-65
2021/07/15 02:45:37;;;;;;;;;;;;;;;23.47;73.73;100112.77;1763768;81;20149;-64
2021/07/15 02:48:05;;;;;;;;;;;;;;;23.56;73.45;100112.64;1763896;81;21125;-65
2021/07/15 02:50:34;;;;;;;;;;;;;;;23.66;73.13;100111.60;1763747;81;20117;-64
2021/07/15 02:53:01;;;;;;;;;;;;;;;23.78;72.65;100115.08;1763907;81;20156;-65
2021/07/15 02:55:27;;;;;;;;;;;;;;;23.91;72.14;100114.56;1763886;81;20121;-65
2021/07/15 02:58:14;;;;;;;;;;;;;;;24.04;71.63;100115.34;1763897;81;20117;-64
2021/07/15 03:00:54;;;;;;;;;;;;;;;24.17;71.08;100112.98;1762257;80;21181;-63
2021/07/15 03:03:30;;;;;;;;;;;;;;;24.33;70.51;100114.79;1755616;81;20150;-65
2021/07/15 03:06:03;;;;;;;;;;;;;;;24.47;69.92;100112.21;1747422;82;20394;-65
2021/07/15 03:08:31;;;;;;;;;;;;;;;24.64;69.29;100108.97;1747264;82;20431;-63
2021/07/15 03:11:00;;;;;;;;;;;;;;;24.81;68.63;100107.85;1747556;82;20461;-64
2021/07/15 03:13:29;;;;;;;;;;;;;;;24.99;67.84;100100.12;1747349;82;20083;-62
2021/07/15 03:15:57;;;;;;;;;;;;;;;25.14;67.14;100092.52;1747286;82;20098;-64
2021/07/15 03:18:27;;;;;;;;;;;;;;;25.29;66.58;100088.55;1747293;82;20099;-64
2021/07/15 03:20:55;;;;;;;;;;;;;;;25.41;66.03;100084.95;1747702;82;20091;-64
2021/07/15 03:23:23;;;;;;;;;;;;;;;25.55;65.60;100085.50;1747265;82;20095;-63
2021/07/15 03:25:52;;;;;;;;;;;;;;;25.71;65.15;100085.34;1720249;82;21132;-65
2021/07/15 03:28:21;;;;;;;;;;;;;;;25.88;64.50;100088.17;1747470;82;20394;-63
2021/07/15 03:30:50;;;;;;;;;;;;;;;26.06;63.91;100091.80;1747379;82;20118;-63
2021/07/15 03:33:16;;;;;;;;;;;;;;;26.27;63.36;100092.89;1747404;82;20127;-64
2021/07/15 03:35:43;;;;;;;;;;;;;;;26.44;62.76;100093.02;1720279;82;20118;-65
2021/07/15 03:38:10;;;;;;;;;;;;;;;26.60;62.33;100095.98;1747314;82;21128;-64
2021/07/15 03:40:37;;;;;;;;;;;;;;;26.76;61.78;100092.59;1747288;82;20091;-64
2021/07/15 03:43:06;;;;;;;;;;;;;;;26.96;61.28;100094.14;1747250;82;20126;-64
2021/07/15 03:45:34;;;;;;;;;;;;;;;27.15;60.72;100100.20;1720613;82;20461;-64
2021/07/15 03:48:02;;;;;;;;;;;;;;;27.34;60.09;100105.89;1747341;82;20119;-65
2021/07/15 03:50:30;;;;;;;;;;;;;;;27.50;59.63;100108.30;1747461;82;21120;-64
2021/07/15 03:53:00;;;;;;;;;;;;;;;27.66;59.24;100111.21;1747715;82;20386;-64
2021/07/15 03:55:36;;;;;;;;;;;;;;;27.77;58.97;100103.98;1747321;82;20099;-65
2021/07/15 03:58:06;;;;;;;;;;;;;;;27.94;58.61;100109.36;1747379;82;20130;-65
2021/07/15 04:00:37;;;;;;;;;;;;;;;28.11;58.17;100102.64;1747060;82;20397;-64
2021/07/15 04:03:04;;;;;;;;;;;;;;;28.29;57.77;100108.85;1744348;82;21074;-64
2021/07/15 04:05:32;;;;;;;;;;;;;;;28.50;57.25;100107.38;1743763;82;20083;-64
2021/07/15 04:07:59;;;;;;;;;;;;;;;28.74;56.63;100102.52;1744682;82;20209;-64
2021/07/15 04:10:31;;;;;;;;;;;;;;;28.97;56.03;100104.34;1744681;82;20123;-65
2021/07/15 04:12:58;;;;;;;;;;;;;;;29.22;55.47;100100.54;1744847;82;20413;-65
2021/07/15 04:15:50;;;;;;;;;;;;;;;29.45;54.81;100103.69;1744686;82;20615;-65
2021/07/15 04:18:18;;;;;;;;;;;;;;;29.66;54.21;100090.55;1716042;82;20119;-65
2021/07/15 04:20:46;;;;;;;;;;;;;;;29.84;53.72;100096.09;1744686;82;20099;-65
2021/07/15 04:23:14;;;;;;;;;;;;;;;29.96;53.40;100092.26;1744622;82;20099;-65
2021/07/15 04:25:43;;;;;;;;;;;;;;;30.12;53.04;100093.67;1734497;82;20132;-65
2021/07/15 04:28:09;;;;;;;;;;;;;;;30.27;52.71;100093.42;1738142;82;21150;-65
2021/07/15 04:30:36;;;;;;;;;;;;;;;30.46;52.27;100091.98;1744569;82;20115;-64
2021/07/15 04:33:09;;;;;;;;;;;;;;;30.64;51.89;100085.93;1740474;82;20087;-63
2021/07/15 04:35:36;;;;;;;;;;;;;;;30.84;51.51;100089.83;1731080;82;20117;-63
2021/07/15 04:38:03;;;;;;;;;;;;;;;31.04;51.21;100081.12;1715114;83;20095;-63
2021/07/15 04:40:30;;;;;;;;;;;;;;;31.26;50.83;100082.93;1715034;83;21160;-64
2021/07/15 04:43:01;;;;;;;;;;;;;;;31.49;50.30;100079.12;1714844;83;20180;-63
2021/07/15 04:45:28;;;;;;;;;;;;;;;31.72;49.93;100078.50;1714377;83;20157;-64
2021/07/15 04:47:55;;;;;;;;;;;;;;;31.98;49.60;100085.48;1713827;83;20165;-64
2021/07/15 04:50:24;;;;;;;;;;;;;;;32.22;49.00;100085.13;1713265;83;20518;-64
2021/07/15 04:53:00;;;;;;;;;;;;;;;32.46;48.43;100086.88;1738169;81;21141;-65
2021/07/15 04:55:27;;;;;;;;;;;;;;;32.70;47.72;100083.76;1723406;82;20448;-64
2021/07/15 04:57:56;;;;;;;;;;;;;;;32.95;47.18;100079.57;1715132;82;32810;-64
2021/07/15 05:00:22;;;;;;;;;;;;;;;33.19;46.83;100081.77;1744598;82;20107;-65
2021/07/15 05:02:52;;;;;;;;;;;;;;;33.43;46.37;100082.66;1738450;81;20139;-65
2021/07/15 05:05:19;;;;;;;;;;;;;;;33.62;46.05;100080.12;1729839;81;20563;-64
2021/07/15 05:07:49;;;;;;;;;;;;;;;33.83;45.48;100076.56;1727409;82;20402;-66
2021/07/15 05:10:16;;;;;;;;;;;;;;;34.02;44.84;100076.69;1718093;81;20182;-63
2021/07/15 05:12:45;;;;;;;;;;;;;;;34.21;44.41;100076.01;1733433;81;20455;-64
2021/07/15 05:15:12;;;;;;;;;;;;;;;34.43;44.13;100071.06;1738572;81;20202;-65
2021/07/15 05:17:40;;;;;;;;;;;;;;;34.64;43.65;100072.28;1730440;81;21792;-61
2021/07/15 05:20:10;;;;;;;12.58;11.30;;;;;;;34.81;43.41;100070.97;1713021;82;21030;-60
2021/07/15 05:22:38;;;;;;;13.08;11.65;;;;;;;35.01;43.21;100071.33;1744499;81;21183;-62
2021/07/15 05:25:08;;;;;;;15.90;10.65;;;;;;;35.23;42.87;100066.52;1724055;81;21641;-69
2021/07/15 05:27:35;;;;;;;12.28;11.00;;;;;;;35.41;42.10;100069.83;1727378;82;21160;-73
2021/07/15 05:30:09;;;;;;;15.63;11.05;;;;;;;35.56;41.78;100063.83;1727659;81;20888;-71
2021/07/15 05:32:39;;;;;;;17.02;10.25;;;;;;;35.74;41.43;100068.13;1728732;81;21255;-67
2021/07/15 05:35:08;;;;;;;11.55;10.45;;;;;;;35.83;40.83;100063.95;1735028;81;20975;-66
2021/07/15 05:37:35;;;;;;;13.58;10.00;;;;;;;35.93;40.73;100061.37;1726748;81;21094;-67
2021/07/15 05:40:05;;;;;;;11.22;10.18;;;;;;;36.07;40.35;100061.27;1731336;81;20950;-76
2021/07/15 05:42:32;;;;;;;11.57;10.48;;;;;;;36.22;39.92;100059.27;1737158;81;21073;-61
2021/07/15 05:44:59;;;;;;;13.60;10.00;;;;;;;36.37;39.58;100066.27;1721223;81;21513;-64
2021/07/15 05:47:28;;;;;;;12.60;9.93;;;;;;;36.53;39.24;100064.52;1726710;81;21023;-71
2021/07/15 05:49:55;;;;;;;13.68;9.48;;;;;;;36.70;39.09;100063.89;1719399;81;21074;-71
2021/07/15 05:52:24;;;;;;;16.20;9.88;;;;;;;36.88;38.88;100063.24;1720828;81;20979;-70
2021/07/15 05:54:56;;;;;;;10.65;9.65;;;;;;;37.08;38.51;100063.42;1724164;81;21093;-66
2021/07/15 05:57:24;;;;;;;10.30;9.23;;;;;;;37.24;38.13;100057.05;1707173;82;21056;-72
2021/07/15 05:59:52;;;;;;;13.78;9.65;;;;;;;37.37;37.86;100054.42;1751722;80;20975;-67
2021/07/15 06:02:19;;;;;;;11.03;8.68;;;;;;;37.45;37.56;100047.69;1727085;82;20872;-64
2021/07/15 06:04:47;;;;;;;10.50;8.98;;;;;;;37.52;37.20;100049.09;1753399;81;20930;-68
2021/07/15 06:07:14;;;;;;;14.05;12.23;;;;;;;37.58;37.19;100052.12;1746705;81;21968;-71
2021/07/15 06:09:41;;;;;;;11.90;10.03;;;;;;;37.63;37.27;100044.52;1731063;81;21014;-76
2021/07/15 06:12:12;;;;;;;12.07;8.85;;;;;;;37.70;36.79;100042.41;1750667;81;20998;-71
2021/07/15 06:14:39;;;;;;;9.28;8.25;;;;;;;37.74;36.75;100035.91;1763984;80;21025;-74
2021/07/15 06:17:08;;;;;;;12.68;8.55;;;;;;;37.81;36.51;100033.77;1757459;81;20935;-70
2021/07/15 06:19:35;;;;;;;11.15;8.38;;;;;;;37.85;36.22;100028.08;1759991;80;21124;-72
2021/07/15 06:22:03;;;;;;;16.95;8.08;;;;;;;37.90;36.09;100043.06;1722363;82;20935;-74
2021/07/15 06:24:30;;;;;;;9.20;8.18;;;;;;;37.96;35.72;100033.84;1743832;81;21045;-72
2021/07/15 06:26:58;;;;;;;8.50;7.37;;;;;;;38.02;35.81;100036.83;1737667;81;20959;-73
2021/07/15 06:29:26;;;;;;;9.75;7.30;;;;;;;38.10;35.79;100031.42;1749519;81;21037;-67
2021/07/15 06:31:53;;;;;;;13.62;8.35;;;;;;;38.17;35.44;100031.48;1746492;81;22661;-68
2021/07/15 06:34:20;;;;;;;9.85;7.95;;;;;;;38.23;35.75;100033.67;1726500;81;21627;-78
2021/07/15 06:36:48;;;;;;;8.63;7.28;;;;;;;38.29;35.72;100033.97;1722857;82;21495;-80
2021/07/15 06:39:16;;;;;;;9.03;7.58;;;;;;;38.42;35.04;100027.98;1723282;82;21196;-70
2021/07/15 06:41:43;;;;;;;10.10;7.50;;;;;;;38.56;34.81;100030.47;1724253;81;20969;-81
2021/07/15 06:44:13;;;;;;;10.28;7.70;;;;;;;38.69;34.64;100035.42;1752982;80;21150;-75
2021/07/15 06:46:42;;;;;;;10.32;7.87;;;;;;;38.88;34.02;100036.22;1724003;81;20961;-71
2021/07/15 06:49:09;;;;;;;10.80;7.53;;;;;;;38.90;33.68;100029.42;1755411;80;20919;-74
2021/07/15 06:51:37;;;;;;;13.88;8.05;;;;;;;38.92;33.64;100031.33;1752490;80;21013;-74
2021/07/15 06:54:04;;;;;;;8.10;7.40;;;;;;;38.96;33.70;100032.41;1728041;82;20935;-69
2021/07/15 06:56:31;;;;;;;11.28;7.67;;;;;;;38.93;33.60;100028.88;1721035;82;21817;-75
2021/07/15 06:58:59;;;;;;;9.05;6.80;;;;;;;38.95;33.60;100030.78;1720723;82;21093;-66
2021/07/15 07:01:27;;;;;;;10.10;7.05;;;;;;;39.05;33.44;100031.91;1718961;82;20975;-63
2021/07/15 07:03:54;;;;;;;9.75;7.50;;;;;;;39.18;33.28;100032.71;1729298;82;20951;-65
2021/07/15 07:06:22;;;;;;;11.68;7.78;;;;;;;39.23;33.21;100032.68;1724914;81;21021;-63
2021/07/15 07:08:50;;;;;;;13.58;7.05;;;;;;;39.22;33.13;100030.50;1782077;79;21663;-63
2021/07/15 07:11:18;;;;;;;9.18;7.25;;;;;;;39.22;33.27;100033.22;1786146;79;21623;-65
2021/07/15 07:13:46;;;;;;;8.83;7.10;;;;;;;39.22;33.59;100028.32;1788798;79;20898;-64
2021/07/15 07:16:14;;;;;;;8.53;7.05;;;;;;;39.33;33.67;100025.85;1794073;78;20953;-69
2021/07/15 07:18:42;;;;;;;8.13;7.10;;;;;;;39.37;33.13;100022.85;1788443;79;20980;-69
2021/07/15 07:21:09;;;;;;;8.80;6.83;;;;;;;39.40;33.53;100022.84;1785970;79;21841;-69
2021/07/15 07:23:36;;;;;;;8.13;6.78;;;;;;;39.48;33.57;100017.69;1781622;78;20950;-65
2021/07/15 07:26:06;;;;;;;12.10;6.70;;;;;;;39.62;33.19;100024.16;1780660;79;20902;-64
2021/07/15 07:28:33;;;;;;;8.43;6.25;;;;;;;39.73;33.00;100022.22;1784293;79;21023;-67
2021/07/15 07:31:00;;;;;;;8.65;5.90;;;;;;;39.75;31.75;100012.40;1783849;79;21351;-65
2021/07/15 07:33:29;;;;;;;8.13;6.47;;;;;;;39.74;31.18;100017.03;1791176;79;21285;-74
2021/07/15 07:35:58;;;;;;;6.55;5.90;;;;;;;39.77;31.53;100015.12;1784914;79;21048;-64
2021/07/15 07:38:27;;;;;;;11.63;6.05;;;;;;;39.77;31.05;100012.39;1786323;79;21080;-66
2021/07/15 07:41:03;;;;;;;10.10;6.20;;;;;;;39.77;30.95;100014.30;1784950;79;20891;-65
2021/07/15 07:43:30;;;;;;;6.75;6.05;;;;;;;39.85;30.37;100006.91;1792270;78;20966;-64
2021/07/15 07:46:00;;;;;;;8.90;5.97;;;;;;;39.90;30.43;100011.83;1785950;80;21091;-68
2021/07/15 07:48:27;;;;;;;6.87;6.17;;;;;;;40.00;29.93;100005.48;1800809;78;21023;-67
2021/07/15 07:50:57;;;;;;;7.15;6.00;;;;;;;40.04;30.04;100012.55;1800695;78;20941;-77
2021/07/15 07:53:23;;;;;;;10.18;5.72;;;;;;;40.08;30.11;100014.44;1802224;78;21016;-73
2021/07/15 07:55:50;;;;;;;7.60;5.85;;;;;;;40.14;29.91;100021.50;1799879;78;21118;-66
2021/07/15 07:58:17;;;;;;;8.90;6.00;;;;;;;40.18;30.07;100022.58;1800120;78;21768;-66
2021/07/15 08:00:44;;;;;;;8.98;5.45;;;;;;;40.23;30.02;100018.45;1789601;78;20911;-77
2021/07/15 08:03:11;;;;;;;12.93;5.72;;;;;;;40.28;29.97;100022.52;1776386;78;20927;-70
2021/07/15 08:05:41;;;;;;;7.83;5.65;;;;;;;40.29;30.01;100015.97;1788839;79;20919;-72
2021/07/15 08:08:18;;;;;;;10.08;6.17;;;;;;;40.28;30.10;100022.52;1775427;79;20935;-71
2021/07/15 08:10:46;;;;;;;8.23;5.78;;;;;;;40.25;29.97;100017.63;1781875;79;21164;-68
2021/07/15 08:13:13;;;;;;;6.22;5.40;;;;;;;40.25;30.06;100020.91;1773046;79;20963;-66
2021/07/15 08:15:40;;;;;;;6.17;5.58;;;;;;;40.26;29.65;100019.26;1792807;79;20954;-69
2021/07/15 08:18:08;;;;;;;13.58;5.85;;;;;;;40.26;29.76;100015.16;1790358;79;21053;-70
2021/07/15 08:20:35;;;;;;;6.92;6.22;;;;;;;40.26;30.17;100015.72;1774369;79;21142;-71
2021/07/15 08:23:05;;;;;;;10.32;5.47;;;;;;;40.30;30.21;100018.14;1793755;79;21885;-74
2021/07/15 08:25:33;;;;;;;9.83;5.83;;;;;;;40.31;29.45;100013.77;1791106;79;20987;-71
2021/07/15 08:28:00;;;;;;;6.05;5.53;;;;;;;40.33;29.27;100005.89;1769057;79;21042;-77
2021/07/15 08:30:27;;;;;;;8.93;5.83;;;;;;;40.37;28.60;100013.77;1738813;80;20959;-64
2021/07/15 08:32:54;;;;;;;6.75;5.72;;;;;;;40.38;28.57;100015.41;1783561;78;20931;-68
2021/07/15 08:35:21;;;;;;;6.72;5.65;;;;;;;40.29;28.70;100015.15;1788663;79;21132;-76
2021/07/15 08:37:49;;;;;;;7.47;5.65;;;;;;;40.23;28.88;100011.63;1795466;79;20977;-79
2021/07/15 08:40:16;;;;;;;7.92;5.25;;;;;;;40.19;28.54;100007.02;1792408;79;21410;-80
2021/07/15 08:42:43;;;;;;;9.05;5.65;;;;;;;40.08;28.85;100007.63;1780633;79;20927;-69
2021/07/15 08:45:11;;;;;;;5.78;5.28;;;;;;;39.99;29.25;100003.84;1769413;79;21484;-80
2021/07/15 08:47:41;;;;;;;8.68;5.40;;;;;;;39.92;28.63;100006.91;1779363;79;21097;-89
2021/07/15 08:50:10;;;;;;;12.23;5.78;;;;;;;39.85;28.62;100001.45;1790407;79;21191;-72
2021/07/15 08:52:37;;;;;;;8.20;5.78;;;;;;;39.74;28.89;100005.31;1791853;79;20931;-71
2021/07/15 08:57:39;;;;;;;6.42;4.92;;;;;;;39.64;28.47;100006.16;1781843;79;20899;-69
2021/07/15 09:00:12;;;;;;;10.15;5.45;;;;;;;39.55;28.23;99996.41;1792505;79;21586;-71
2021/07/15 09:02:39;;;;;;;6.37;5.70;;;;;;;39.44;28.73;100000.22;1796684;78;21496;-67
2021/07/15 09:05:08;;;;;;;9.00;5.42;;;;;;;39.30;29.07;99994.53;1806360;78;20961;-69
2021/07/15 09:07:41;;;;;;;8.73;6.70;;;;;;;39.29;29.40;99998.34;1811168;78;20890;-70
2021/07/15 09:10:11;;;;;;;6.85;5.42;;;;;;;39.30;29.64;99990.44;1796059;78;20874;-69
2021/07/15 09:12:40;;;;;;;8.25;5.53;;;;;;;39.28;29.75;99998.62;1794924;78;21924;-74
2021/07/15 09:15:11;;;;;;;6.35;5.75;;;;;;;39.22;28.87;99992.91;1793238;78;20843;-66
2021/07/15 09:17:41;;;;;;;6.50;5.60;;;;;;;39.07;28.82;99984.23;1794500;78;20934;-66
2021/07/15 09:20:22;;;;;;;6.45;5.28;;;;;;;38.90;29.13;99983.13;1800633;78;20961;-67
2021/07/15 09:23:03;;;;;;;7.22;5.40;;;;;;;38.78;29.30;99981.26;1794484;78;21456;-66
2021/07/15 09:25:46;;;;;;;10.72;5.72;;;;;;;38.69;29.37;99980.98;1794021;78;20922;-74
2021/07/15 09:28:15;;;;;;;7.58;5.28;;;;;;;38.60;29.97;99976.35;1806393;78;20942;-71
2021/07/15 09:30:47;;;;;;;8.25;5.60;;;;;;;38.50;30.12;99973.59;1795744;79;20981;-70
2021/07/15 09:33:14;;;;;;;8.05;5.70;;;;;;;38.38;30.31;99967.07;1797966;78;20989;-76
2021/07/15 09:35:47;;;;;;;8.53;5.47;;;;;;;38.25;30.42;99967.05;1789663;78;21445;-74
2021/07/15 09:38:22;;;;;;;8.13;5.97;;;;;;;38.18;30.73;99966.48;1800325;78;21024;-75
2021/07/15 09:40:57;;;;;;;7.47;5.60;;;;;;;38.03;30.63;99965.05;1796184;78;20997;-69
2021/07/15 09:43:28;;;;;;;8.28;5.33;;;;;;;37.88;30.90;99958.23;1786426;78;20926;-67
2021/07/15 09:46:16;;;;;;;6.12;5.53;;;;;;;37.76;30.80;99954.39;1795485;78;21068;-70
2021/07/15 09:49:06;;;;;;;6.67;4.87;;;;;;;37.68;31.27;99961.15;1793331;78;20942;-80
2021/07/15 09:51:41;;;;;;;8.25;5.20;;;;;;;37.60;31.69;99956.73;1740693;81;20958;-72
2021/07/15 09:54:09;;;;;;;6.10;5.50;;;;;;;37.53;31.45;99958.90;1755309;80;21433;-69
2021/07/15 09:56:44;;;;;;;9.75;5.67;;;;;;;37.46;31.47;99958.31;1722329;82;20936;-76
2021/07/15 09:59:11;;;;;;;6.60;5.70;;;;;;;37.28;31.60;99954.95;1728858;82;21082;-72
2021/07/15 10:01:47;;;;;;;7.45;5.62;;;;;;;37.19;31.88;99953.78;1740375;82;20986;-71
2021/07/15 10:04:24;;;;;;;9.43;5.53;;;;;;;37.19;31.70;99952.42;1733915;82;21758;-69
2021/07/15 10:06:53;;;;;;;9.20;5.50;;;;;;;37.16;31.63;99951.62;1733178;83;20995;-66
2021/07/15 10:09:29;;;;;;;;;;;;;;;37.13;31.90;99949.97;1734004;83;20999;-67
2021/07/15 10:11:58;;;;;;;;;;;;;;;37.09;31.82;99954.28;1742053;82;20151;-70
2021/07/15 10:14:35;;;;;;;;;;;;;;;37.06;31.74;99955.09;1751403;81;20116;-70
2021/07/15 10:17:03;;;;;;;;;;;;;;;37.06;31.77;99950.20;1730296;81;22213;-70
2021/07/15 10:19:30;;;;;;;;;;;;;;;37.02;31.59;99951.26;1747149;81;20126;-67
2021/07/15 10:22:03;;;;;;;;;;;;;;;37.01;31.69;99950.16;1744695;82;20119;-67
2021/07/15 10:24:32;;;;;;;;;;;;;;;37.00;31.85;99949.34;1736462;81;20176;-65
2021/07/15 10:27:06;;;;;;;;;;;;;;;37.00;31.71;99951.23;1726685;81;20392;-66
2021/07/15 10:29:34;;;;;;;;;;;;;;;36.98;31.65;99954.21;1751866;80;20498;-72
2021/07/15 10:32:03;;;;;;;;;;;;;;;36.94;31.64;99947.67;1750893;81;20431;-66
2021/07/15 10:34:31;;;;;;;;;;;;;;;36.90;31.56;99941.66;1734699;81;20158;-72
2021/07/15 10:37:01;;;;;;;;;;;;;;;36.86;31.87;99941.36;1746112;82;20095;-66
2021/07/15 10:39:29;;;;;;;;;;;;;;;36.85;31.76;99938.38;1747306;82;20080;-65
2021/07/15 10:41:58;;;;;;;;;;;;;;;36.80;32.11;99932.91;1747506;82;20085;-65
2021/07/15 10:44:28;;;;;;;;;;;;;;;36.73;31.82;99927.73;1753511;81;20188;-66
2021/07/15 10:46:59;;;;;;;;;;;;;;;36.62;31.68;99933.30;1746536;81;20111;-70
2021/07/15 10:49:27;;;;;;;;;;;;;;;36.49;31.80;99934.55;1750347;81;20181;-70
2021/07/15 10:51:56;;;;;;;;;;;;;;;36.37;32.22;99929.31;1748638;81;20091;-67
2021/07/15 10:54:24;;;;;;;;;;;;;;;36.27;32.54;99923.79;1745340;81;20106;-68
2021/07/15 10:56:52;;;;;;;;;;;;;;;36.21;32.84;99924.78;1739964;81;20116;-67
2021/07/15 10:59:30;;;;;;;;;;;;;;;36.18;32.35;99915.80;1734712;82;20122;-71
2021/07/15 11:01:59;;;;;;;;;;;;;;;36.13;32.32;99919.81;1737638;82;20127;-70
2021/07/15 11:04:35;;;;;;;;;;;;;;;36.05;32.38;99915.67;1728438;82;20111;-68
2021/07/15 11:07:22;;;;;;;;;;;;;;;36.03;33.07;99911.58;1736427;81;21938;-64
2021/07/15 11:09:50;;;;;;;;;;;;;;;36.04;33.61;99905.09;1732831;81;20411;-71
2021/07/15 11:12:39;;;;;;;;;;;;;;;36.01;33.20;99895.57;1737554;82;20118;-67
2021/07/15 11:15:12;;;;;;;;;;;;;;;36.00;33.38;99902.60;1734932;82;20091;-69
2021/07/15 11:17:50;;;;;;;;;;;;;;;35.91;32.90;99898.73;1739611;81;20205;-79
2021/07/15 11:20:32;;;;;;;;;;;;;;;35.84;33.07;99895.41;1737463;81;21239;-77
2021/07/15 11:23:10;;;;;;;;;;;;;;;35.80;33.36;99891.03;1739365;81;20499;-78
2021/07/15 11:25:45;;;;;;;;;;;;;;;35.79;33.14;99896.17;1732719;81;20129;-64
2021/07/15 11:28:19;;;;;;;;;;;;;;;35.72;32.69;99886.84;1740773;81;20136;-70
2021/07/15 11:30:52;;;;;;;;;;;;;;;35.68;33.14;99887.08;1743289;81;20139;-72
2021/07/15 11:33:26;;;;;;;;;;;;;;;35.66;33.33;99880.27;1749220;81;20155;-66
2021/07/15 11:36:03;;;;;;;;;;;;;;;35.63;33.50;99877.53;1738098;81;20159;-67
2021/07/15 11:38:40;;;;;;;;;;;;;;;35.61;33.51;99879.67;1732617;82;20110;-70
2021/07/15 11:41:13;;;;;;;;;;;;;;;35.58;33.18;99876.15;1731351;82;20151;-74
2021/07/15 11:43:52;;;;;;;;;;;;;;;35.53;33.60;99869.31;1738294;82;20250;-66
2021/07/15 11:46:26;;;;;;;;;;;;;;;35.50;33.69;99864.41;1733693;82;20473;-63
2021/07/15 11:49:10;;;;;;;;;;;;;;;35.52;34.35;99861.44;1736954;82;20121;-75
2021/07/15 11:51:45;;;;;;;;;;;;;;;35.50;34.04;99856.28;1732129;82;20119;-70
2021/07/15 11:54:32;;;;;;;;;;;;;;;35.48;34.15;99850.83;1729266;82;20377;-66
2021/07/15 11:57:15;;;;;;;;;;;;;;;35.44;33.96;99850.52;1730049;82;20089;-79
2021/07/15 11:59:50;;;;;;;;;;;;;;;35.43;34.03;99858.36;1730778;82;21760;-68
2021/07/15 12:02:26;;;;;;;;;;;;;;;35.40;34.26;99851.56;1730530;82;20165;-68
2021/07/15 12:05:10;;;;;;;;;;;;;;;35.41;33.72;99848.31;1737900;82;20540;-70
2021/07/15 12:08:06;;;;;;;;;;;;;;;35.39;33.57;99843.69;1742588;82;20131;-67
2021/07/15 12:10:44;;;;;;;;;;;;;;;35.38;34.00;99847.47;1743779;81;20113;-66
2021/07/15 12:13:14;;;;;;;;;;;;;;;35.38;33.31;99848.82;1733622;81;20495;-69
2021/07/15 12:15:43;;;;;;;;;;;;;;;35.35;33.19;99850.14;1723477;82;20141;-72
2021/07/15 12:18:18;;;;;;;;;;;;;;;35.33;33.22;99848.22;1726311;82;20402;-79
2021/07/15 12:20:52;;;;;;;;;;;;;;;35.30;33.12;99846.02;1734314;82;20099;-84
2021/07/15 12:23:34;;;;;;;;;;;;;;;35.28;33.41;99845.42;1738036;81;20103;-66
2021/07/15 12:26:04;;;;;;;;;;;;;;;35.27;33.58;99847.84;1749554;81;20123;-78